createdAt,value
2023-01-20T00:00:05.020Z,41.83
2023-01-20T00:02:17.119Z,32.27
2023-01-20T00:04:22.179Z,25.37
2023-01-20T00:06:25.714Z,20.80
2023-01-20T00:08:27.852Z,22.30
2023-01-20T00:10:30.050Z,20.20
2023-01-20T00:12:32.345Z,21.30
2023-01-20T00:14:34.385Z,17.63
2023-01-20T00:16:36.510Z,19.43
2023-01-20T00:18:41.564Z,41.90
2023-01-20T00:20:43.915Z,38.57
2023-01-20T00:22:46.108Z,37.40
2023-01-20T00:24:48.451Z,40.00
2023-01-20T00:26:50.548Z,32.07
2023-01-20T00:28:57.890Z,25.80
2023-01-20T00:31:13.530Z,19.87
2023-01-20T00:33:15.753Z,17.50
2023-01-20T00:35:17.745Z,15.63
2023-01-20T00:37:20.211Z,15.10
2023-01-20T00:39:22.506Z,14.47
2023-01-20T00:41:24.964Z,24.53
2023-01-20T00:43:27.192Z,21.90
2023-01-20T00:45:29.332Z,25.87
2023-01-20T00:47:31.245Z,47.33
2023-01-20T00:49:33.220Z,48.53
2023-01-20T00:51:35.271Z,42.57
2023-01-20T00:53:39.205Z,33.23
2023-01-20T00:55:41.266Z,33.90
2023-01-20T00:57:43.393Z,20.07
2023-01-20T00:59:45.402Z,19.90
2023-01-20T01:01:47.585Z,18.17
2023-01-20T01:03:49.978Z,17.33
2023-01-20T01:05:52.103Z,16.53
2023-01-20T01:07:54.153Z,16.93
2023-01-20T01:09:56.134Z,17.60
2023-01-20T01:11:58.410Z,27.07
2023-01-20T01:14:00.668Z,22.30
2023-01-20T01:16:02.871Z,29.87
2023-01-20T01:18:05.229Z,22.53
2023-01-20T01:20:07.654Z,21.80
2023-01-20T01:22:09.915Z,19.00
2023-01-20T01:24:12.056Z,16.33
2023-01-20T01:26:14.429Z,15.97
2023-01-20T01:28:16.497Z,14.87
2023-01-20T01:30:18.844Z,14.03
2023-01-20T01:32:21.093Z,13.17
2023-01-20T01:34:23.387Z,14.77
2023-01-20T01:37:15.531Z,15.60
2023-01-20T01:39:20.218Z,15.27
2023-01-20T01:41:22.301Z,17.87
2023-01-20T01:43:27.611Z,16.13
2023-01-20T01:45:33.461Z,13.80
2023-01-20T01:47:36.335Z,17.00
2023-01-20T01:49:38.274Z,14.50
2023-01-20T01:51:49.959Z,14.60
2023-01-20T01:54:04.402Z,13.87
2023-01-20T01:56:07.049Z,12.87
2023-01-20T01:58:13.748Z,16.10
2023-01-20T02:00:16.132Z,15.07
2023-01-20T02:02:22.716Z,14.13
2023-01-20T02:04:27.803Z,14.63
2023-01-20T02:06:34.497Z,14.10
2023-01-20T02:08:40.288Z,14.27
2023-01-20T02:10:42.365Z,16.07
2023-01-20T02:12:49.604Z,14.87
2023-01-20T02:14:59.429Z,12.30
2023-01-20T02:17:07.359Z,15.77
2023-01-20T02:19:27.978Z,15.13
2023-01-20T02:21:32.656Z,20.00
2023-01-20T02:24:12.148Z,16.10
2023-01-20T02:26:19.902Z,17.10
2023-01-20T02:29:10.838Z,17.50
2023-01-20T02:31:34.253Z,18.97
2023-01-20T02:33:46.320Z,17.17
2023-01-20T02:36:10.270Z,16.53
2023-01-20T02:38:24.415Z,15.03
2023-01-20T02:40:32.405Z,17.70
2023-01-20T02:42:42.694Z,20.83
2023-01-20T02:44:50.954Z,15.37
2023-01-20T02:47:09.785Z,15.63
2023-01-20T02:49:25.383Z,16.30
2023-01-20T02:51:44.268Z,17.03
2023-01-20T02:53:58.970Z,17.17
2023-01-20T02:56:01.348Z,17.70
2023-01-20T02:58:11.284Z,18.83
2023-01-20T03:00:20.627Z,17.33
2023-01-20T03:02:25.777Z,17.77
2023-01-20T03:04:32.011Z,18.87
2023-01-20T03:06:38.542Z,18.07
2023-01-20T03:08:41.691Z,15.80
2023-01-20T03:10:46.478Z,18.80
2023-01-20T03:12:57.783Z,16.83
2023-01-20T03:14:59.631Z,18.50
2023-01-20T03:17:03.049Z,16.80
2023-01-20T03:19:05.085Z,17.23
2023-01-20T03:21:09.362Z,19.00
2023-01-20T03:23:11.918Z,18.93
2023-01-20T03:25:15.261Z,19.43
2023-01-20T03:27:17.849Z,26.60
2023-01-20T03:29:19.891Z,24.10
2023-01-20T03:31:26.639Z,23.90
2023-01-20T03:33:28.931Z,20.57
2023-01-20T03:35:32.293Z,22.77
2023-01-20T03:37:34.669Z,19.00
2023-01-20T03:39:40.056Z,19.87
2023-01-20T03:42:16.563Z,22.80
2023-01-20T03:44:27.906Z,21.87
2023-01-20T03:46:40.339Z,21.70
2023-01-20T03:48:50.131Z,21.27
2023-01-20T03:51:13.872Z,21.53
2023-01-20T03:53:30.486Z,18.20
2023-01-20T03:55:43.145Z,22.83
2023-01-20T03:58:12.903Z,19.50
2023-01-20T04:00:17.004Z,19.57
2023-01-20T04:02:20.981Z,19.87
2023-01-20T04:04:23.395Z,21.20
2023-01-20T04:06:28.243Z,18.07
2023-01-20T04:08:35.144Z,21.90
2023-01-20T04:10:55.559Z,19.97
2023-01-20T04:12:57.766Z,20.27
2023-01-20T04:15:01.263Z,20.93
2023-01-20T04:17:05.035Z,20.43
2023-01-20T04:19:09.512Z,19.13
2023-01-20T04:21:16.630Z,16.53
2023-01-20T04:23:29.031Z,19.57
2023-01-20T04:25:32.688Z,18.03
2023-01-20T04:27:34.723Z,17.93
2023-01-20T04:29:36.758Z,17.67
2023-01-20T04:31:38.826Z,20.80
2023-01-20T04:33:41.724Z,18.53
2023-01-20T04:35:43.839Z,17.53
2023-01-20T04:37:46.328Z,19.80
2023-01-20T04:39:48.231Z,17.33
2023-01-20T04:41:50.462Z,16.67
2023-01-20T04:43:55.437Z,17.50
2023-01-20T04:45:57.577Z,19.10
2023-01-20T04:47:59.776Z,22.97
2023-01-20T04:50:02.004Z,20.73
2023-01-20T04:52:04.356Z,20.80
2023-01-20T04:54:07.077Z,27.73
2023-01-20T04:56:13.698Z,29.57
2023-01-20T04:58:15.832Z,30.77
2023-01-20T05:00:20.215Z,30.10
2023-01-20T05:02:22.342Z,29.80
2023-01-20T05:04:25.556Z,30.80
2023-01-20T05:06:28.015Z,28.50
2023-01-20T05:08:30.243Z,25.57
2023-01-20T05:10:33.596Z,23.70
2023-01-20T05:12:36.609Z,22.03
2023-01-20T05:14:38.715Z,23.80
2023-01-20T05:16:40.750Z,20.57
2023-01-20T05:18:42.992Z,19.50
2023-01-20T05:20:46.705Z,19.40
2023-01-20T05:22:48.658Z,18.43
2023-01-20T05:24:50.674Z,19.47
2023-01-20T05:26:52.730Z,17.53
2023-01-20T05:28:54.886Z,20.47
2023-01-20T05:30:57.127Z,25.83
2023-01-20T05:32:59.293Z,25.13
2023-01-20T05:35:01.546Z,50.40
2023-01-20T05:37:06.429Z,61.50
2023-01-20T05:39:08.568Z,58.73
2023-01-20T05:41:11.059Z,49.27
2023-01-20T05:43:13.505Z,40.00
2023-01-20T05:45:16.063Z,39.53
2023-01-20T05:47:18.475Z,34.03
2023-01-20T05:49:20.613Z,43.37
2023-01-20T05:51:22.755Z,36.00
2023-01-20T05:53:25.099Z,36.63
2023-01-20T05:55:27.204Z,31.57
2023-01-20T05:57:29.288Z,33.07
2023-01-20T05:59:31.800Z,38.57
2023-01-20T06:01:34.089Z,31.67
2023-01-20T06:03:36.426Z,32.37
2023-01-20T06:05:39.180Z,27.23
2023-01-20T06:07:41.318Z,27.80
2023-01-20T06:09:43.624Z,29.47
2023-01-20T06:11:45.595Z,25.87
2023-01-20T06:13:48.931Z,26.33
2023-01-20T06:15:55.020Z,27.93
2023-01-20T06:17:56.981Z,28.27
2023-01-20T06:20:00.351Z,27.43
2023-01-20T06:22:03.142Z,26.60
2023-01-20T06:24:05.678Z,26.20
2023-01-20T06:26:11.486Z,27.27
2023-01-20T06:28:13.767Z,29.30
2023-01-20T06:30:16.419Z,25.27
2023-01-20T06:32:18.578Z,26.87
2023-01-20T06:34:20.578Z,29.33
2023-01-20T06:36:24.522Z,24.80
2023-01-20T06:38:29.483Z,33.27
2023-01-20T06:40:31.708Z,30.10
2023-01-20T06:42:33.896Z,30.20
2023-01-20T06:44:36.235Z,29.87
2023-01-20T06:46:38.208Z,34.07
2023-01-20T06:48:41.063Z,29.63
2023-01-20T06:50:43.130Z,27.23
2023-01-20T06:52:45.495Z,25.13
2023-01-20T06:54:47.354Z,25.80
2023-01-20T06:56:49.292Z,25.60
2023-01-20T06:58:51.653Z,23.97
2023-01-20T07:00:55.260Z,23.53
2023-01-20T07:02:57.236Z,20.70
2023-01-20T07:05:00.259Z,22.43
2023-01-20T07:07:02.141Z,21.40
2023-01-20T07:09:06.878Z,22.93
2023-01-20T07:11:08.827Z,22.70
2023-01-20T07:13:11.103Z,21.47
2023-01-20T07:15:13.226Z,19.63
2023-01-20T07:17:15.655Z,18.20
2023-01-20T07:19:17.687Z,21.63
2023-01-20T07:21:20.459Z,17.27
2023-01-20T07:23:23.497Z,18.10
2023-01-20T07:25:25.686Z,15.63
2023-01-20T07:27:27.669Z,16.37
2023-01-20T07:29:29.806Z,13.10
2023-01-20T07:31:31.814Z,15.60
2023-01-20T07:33:35.069Z,17.07
2023-01-20T07:35:37.189Z,13.17
2023-01-20T07:38:06.159Z,16.17
2023-01-20T07:40:09.045Z,16.17
2023-01-20T07:42:11.046Z,16.00
2023-01-20T07:44:12.935Z,16.07
2023-01-20T07:46:15.709Z,16.13
2023-01-20T07:48:17.671Z,19.23
2023-01-20T07:50:19.656Z,18.13
2023-01-20T07:52:21.654Z,15.53
2023-01-20T07:54:26.381Z,17.27
2023-01-20T07:56:29.785Z,18.67
2023-01-20T07:58:32.838Z,15.30
2023-01-20T08:00:35.037Z,16.93
2023-01-20T08:02:38.639Z,16.93
2023-01-20T08:04:40.882Z,18.27
2023-01-20T08:06:43.053Z,18.47
2023-01-20T08:08:45.852Z,15.00
2023-01-20T08:10:54.255Z,15.30
2023-01-20T08:12:59.152Z,12.83
2023-01-20T08:15:01.106Z,17.93
2023-01-20T08:17:03.064Z,20.70
2023-01-20T08:19:05.090Z,31.63
2023-01-20T08:21:08.942Z,66.47
2023-01-20T08:23:11.073Z,80.07
2023-01-20T08:25:13.729Z,149.90
2023-01-20T08:27:16.300Z,132.70
2023-01-20T08:29:18.429Z,82.27
2023-01-20T08:31:26.117Z,95.87
2023-01-20T08:33:28.503Z,58.37
2023-01-20T08:35:30.720Z,38.00
2023-01-20T08:37:32.901Z,38.70
2023-01-20T08:39:34.952Z,55.57
2023-01-20T08:41:38.702Z,37.77
2023-01-20T08:43:41.182Z,21.27
2023-01-20T08:45:43.990Z,13.70
2023-01-20T08:47:46.632Z,12.87
2023-01-20T08:49:48.603Z,16.47
2023-01-20T08:51:50.706Z,15.17
2023-01-20T08:53:55.690Z,13.63
2023-01-20T08:56:00.201Z,12.53
2023-01-20T08:58:02.261Z,15.70
2023-01-20T09:00:06.403Z,13.87
2023-01-20T09:02:10.887Z,15.30
2023-01-20T09:04:13.199Z,14.97
2023-01-20T09:06:15.843Z,16.20
2023-01-20T09:08:18.749Z,11.23
2023-01-20T09:10:21.010Z,12.03
2023-01-20T09:12:23.136Z,13.30
2023-01-20T09:14:25.552Z,14.57
2023-01-20T09:16:30.655Z,14.97
2023-01-20T09:18:34.151Z,14.13
2023-01-20T09:20:37.475Z,13.30
2023-01-20T09:22:40.604Z,14.70
2023-01-20T09:24:42.820Z,12.83
2023-01-20T09:26:45.585Z,13.20
2023-01-20T09:28:48.122Z,12.63
2023-01-20T09:30:50.364Z,12.83
2023-01-20T09:32:55.431Z,13.10
2023-01-20T09:34:58.053Z,13.50
2023-01-20T09:37:20.532Z,13.23
2023-01-20T09:39:41.183Z,35.63
2023-01-20T09:42:07.820Z,40.17
2023-01-20T09:44:12.507Z,30.03
2023-01-20T09:46:31.010Z,29.27
2023-01-20T09:49:19.064Z,21.33
2023-01-20T09:51:49.851Z,19.13
2023-01-20T09:54:17.127Z,17.00
2023-01-20T09:56:22.681Z,20.70
2023-01-20T09:59:05.255Z,24.20
2023-01-20T10:01:20.102Z,24.73
2023-01-20T10:03:37.508Z,25.73
2023-01-20T10:05:40.746Z,24.97
2023-01-20T10:07:51.648Z,24.73
2023-01-20T10:10:04.918Z,26.20
2023-01-20T10:12:25.063Z,46.23
2023-01-20T10:14:40.006Z,37.87
2023-01-20T10:17:18.152Z,49.33
2023-01-20T10:19:29.521Z,48.87
2023-01-20T10:21:48.710Z,46.37
2023-01-20T10:24:18.287Z,70.63
2023-01-20T10:26:55.765Z,45.90
2023-01-20T10:33:02.582Z,25.67
2023-01-20T10:35:18.448Z,24.43
2023-01-20T10:37:23.217Z,21.90
2023-01-20T10:40:02.073Z,21.10
2023-01-20T10:42:10.232Z,20.10
2023-01-20T10:44:14.748Z,19.47
2023-01-20T10:46:54.950Z,16.50
2023-01-20T10:49:27.825Z,17.17
2023-01-20T10:51:38.791Z,20.13
2023-01-20T10:53:54.196Z,20.27
2023-01-20T10:56:04.322Z,20.23
2023-01-20T10:58:12.297Z,19.33
2023-01-20T11:00:22.779Z,20.40
2023-01-20T11:02:31.617Z,20.17
2023-01-20T11:04:36.224Z,25.57
2023-01-20T11:06:39.476Z,18.63
2023-01-20T11:08:44.348Z,18.93
2023-01-20T11:10:50.002Z,21.33
2023-01-20T11:12:55.670Z,22.70
2023-01-20T11:15:00.596Z,18.93
2023-01-20T11:17:07.851Z,18.60
2023-01-20T11:19:10.236Z,18.13
2023-01-20T11:21:13.849Z,14.77
2023-01-20T11:23:38.438Z,16.90
2023-01-20T11:25:40.739Z,17.27
2023-01-20T11:27:46.851Z,15.20
2023-01-20T11:29:53.934Z,18.37
2023-01-20T11:31:59.262Z,15.47
2023-01-20T11:34:18.427Z,17.00
2023-01-20T11:36:21.417Z,20.57
2023-01-20T11:38:26.002Z,21.33
2023-01-20T11:40:29.356Z,19.90
2023-01-20T11:46:34.596Z,16.57
2023-01-20T11:48:36.921Z,16.83
2023-01-20T11:50:57.722Z,18.60
2023-01-20T11:53:33.120Z,18.07
2023-01-20T11:55:47.161Z,30.17
2023-01-20T11:57:56.171Z,25.87
2023-01-20T11:59:58.849Z,19.23
2023-01-20T12:02:09.848Z,17.73
2023-01-20T12:04:39.387Z,14.97
2023-01-20T12:06:58.721Z,22.57
2023-01-20T12:09:06.323Z,18.90
2023-01-20T12:11:11.450Z,20.83
2023-01-20T12:13:19.116Z,20.93
2023-01-20T12:15:29.486Z,17.43
2023-01-20T12:17:42.475Z,19.77
2023-01-20T12:20:14.989Z,21.37
2023-01-20T12:22:49.471Z,19.03
2023-01-20T12:25:08.791Z,24.23
2023-01-20T12:27:21.158Z,19.40
2023-01-20T12:29:31.063Z,20.60
2023-01-20T12:31:34.000Z,18.77
2023-01-20T12:33:40.629Z,19.03
2023-01-20T12:36:01.974Z,21.13
2023-01-20T12:38:08.913Z,20.23
2023-01-20T12:40:19.627Z,26.43
2023-01-20T12:43:02.255Z,24.03
2023-01-20T12:45:15.723Z,28.27
2023-01-20T12:47:29.814Z,34.47
2023-01-20T12:49:48.414Z,56.00
2023-01-20T12:52:06.731Z,42.90
2023-01-20T12:54:23.746Z,34.40
2023-01-20T12:56:55.200Z,33.83
2023-01-20T12:59:36.992Z,28.33
2023-01-20T13:01:58.507Z,38.77
2023-01-20T13:04:38.010Z,37.40
2023-01-20T13:06:52.404Z,39.87
2023-01-20T13:09:24.744Z,62.97
2023-01-20T13:11:54.585Z,54.97
2023-01-20T13:14:07.966Z,56.63
2023-01-20T13:16:31.936Z,43.87
2023-01-20T13:18:45.983Z,35.17
2023-01-20T13:20:49.072Z,34.93
2023-01-20T13:22:52.305Z,30.33
2023-01-20T13:24:56.707Z,33.80
2023-01-20T13:27:00.631Z,30.50
2023-01-20T13:29:03.163Z,33.97
2023-01-20T13:31:32.512Z,33.40
2023-01-20T13:33:40.171Z,35.13
2023-01-20T13:35:50.167Z,35.27
2023-01-20T13:37:58.167Z,42.43
2023-01-20T13:40:00.845Z,36.10
2023-01-20T13:42:32.103Z,37.80
2023-01-20T13:44:41.470Z,36.50
2023-01-20T13:46:45.588Z,39.53
2023-01-20T13:49:28.547Z,41.50
2023-01-20T13:51:36.534Z,36.17
2023-01-20T13:53:38.649Z,32.83
2023-01-20T13:55:46.018Z,25.90
2023-01-20T13:57:48.254Z,26.37
2023-01-20T13:59:50.963Z,24.10
2023-01-20T14:01:54.405Z,25.17
2023-01-20T14:04:06.861Z,27.37
2023-01-20T14:06:14.744Z,25.20
2023-01-20T14:08:21.299Z,23.30
2023-01-20T14:10:23.871Z,23.63
2023-01-20T14:12:26.763Z,24.83
2023-01-20T14:14:28.816Z,27.33
2023-01-20T14:16:33.919Z,29.60
2023-01-20T14:18:36.999Z,30.10
2023-01-20T14:20:41.230Z,40.57
2023-01-20T14:22:44.923Z,60.77
2023-01-20T14:24:48.907Z,71.10
2023-01-20T14:26:51.212Z,68.07
2023-01-20T14:28:58.977Z,56.67
2023-01-20T14:31:20.305Z,49.43
2023-01-20T14:33:24.603Z,48.57
2023-01-20T14:35:33.871Z,59.80
2023-01-20T14:37:38.315Z,52.87
2023-01-20T14:39:43.868Z,47.17
2023-01-20T14:41:49.487Z,63.23
2023-01-20T14:43:51.765Z,58.97
2023-01-20T14:45:54.075Z,73.73
2023-01-20T14:47:59.173Z,58.53
2023-01-20T14:50:02.402Z,40.67
2023-01-20T14:52:05.478Z,42.27
2023-01-20T14:54:35.293Z,40.80
2023-01-20T14:56:37.679Z,26.97
2023-01-20T14:58:49.171Z,27.13
2023-01-20T15:00:59.041Z,25.23
2023-01-20T15:03:19.029Z,27.00
2023-01-20T15:05:27.929Z,34.77
2023-01-20T15:07:30.385Z,53.47
2023-01-20T15:09:35.332Z,61.67
2023-01-20T15:11:37.649Z,43.87
2023-01-20T15:13:41.411Z,32.50
2023-01-20T15:15:43.781Z,36.43
2023-01-20T15:18:23.238Z,38.80
2023-01-20T15:20:33.805Z,56.83
2023-01-20T15:22:35.783Z,61.33
2023-01-20T15:24:38.413Z,71.00
2023-01-20T15:26:40.499Z,66.37
2023-01-20T15:28:44.463Z,75.47
2023-01-20T15:30:47.849Z,71.73
2023-01-20T15:32:51.876Z,65.23
2023-01-20T15:34:53.821Z,60.43
2023-01-20T15:36:56.972Z,58.90
2023-01-20T15:38:59.302Z,57.93
2023-01-20T15:41:01.600Z,62.20
2023-01-20T15:43:03.698Z,53.23
2023-01-20T15:45:06.153Z,56.30
2023-01-20T15:47:20.815Z,58.27
2023-01-20T15:49:22.985Z,52.17
2023-01-20T15:51:25.411Z,47.77
2023-01-20T15:53:30.157Z,55.23
2023-01-20T15:55:34.327Z,42.63
2023-01-20T15:57:36.633Z,42.13
2023-01-20T15:59:38.684Z,62.10
2023-01-20T16:01:40.691Z,66.67
2023-01-20T16:03:42.894Z,69.97
2023-01-20T16:05:45.019Z,61.93
2023-01-20T16:07:49.645Z,54.33
2023-01-20T16:09:52.190Z,55.47
2023-01-20T16:11:54.633Z,62.50
2023-01-20T16:13:58.050Z,71.07
2023-01-20T16:16:01.588Z,55.03
2023-01-20T16:18:03.885Z,46.13
2023-01-20T16:20:17.035Z,62.97
2023-01-20T16:22:19.271Z,60.60
2023-01-20T16:24:21.460Z,42.70
2023-01-20T16:26:29.182Z,20.83
2023-01-20T16:28:31.206Z,29.80
2023-01-20T16:30:33.255Z,21.27
2023-01-20T16:32:35.303Z,19.23
2023-01-20T16:34:37.561Z,18.63
2023-01-20T16:36:39.681Z,13.63
2023-01-20T16:38:42.101Z,11.60
2023-01-20T16:40:58.795Z,12.53
2023-01-20T16:43:03.317Z,13.33
2023-01-20T16:45:06.519Z,13.33
2023-01-20T16:47:08.725Z,9.73
2023-01-20T16:49:10.955Z,7.90
2023-01-20T16:51:19.057Z,10.10
2023-01-20T16:53:21.091Z,7.80
2023-01-20T16:55:24.144Z,9.47
2023-01-20T16:57:26.391Z,6.23
2023-01-20T16:59:28.558Z,5.97
2023-01-20T17:01:30.853Z,5.47
2023-01-20T17:03:33.296Z,8.53
2023-01-20T17:05:35.528Z,5.57
2023-01-20T17:07:37.796Z,6.73
2023-01-20T17:09:39.975Z,5.97
2023-01-20T17:11:42.215Z,6.07
2023-01-20T17:13:44.703Z,6.23
2023-01-20T17:15:46.764Z,7.07
2023-01-20T17:17:50.127Z,6.40
2023-01-20T17:19:52.496Z,8.03
2023-01-20T17:21:57.464Z,8.33
2023-01-20T17:24:02.779Z,6.03
2023-01-20T17:26:06.578Z,5.33
2023-01-20T17:28:08.622Z,6.27
2023-01-20T17:30:11.367Z,7.73
2023-01-20T17:32:14.222Z,5.57
2023-01-20T17:34:16.309Z,4.67
2023-01-20T17:36:18.830Z,3.50
2023-01-20T17:38:21.004Z,3.63
2023-01-20T17:40:23.545Z,3.17
2023-01-20T17:42:25.778Z,4.03
2023-01-20T17:44:28.069Z,4.23
2023-01-20T17:46:31.157Z,4.53
2023-01-20T17:48:35.891Z,5.07
2023-01-20T17:50:39.179Z,12.67
2023-01-20T17:52:41.524Z,9.03
2023-01-20T17:54:44.110Z,9.40
2023-01-20T17:56:48.106Z,10.07
2023-01-20T17:58:50.754Z,6.87
2023-01-20T18:00:53.144Z,4.43
2023-01-20T18:02:56.405Z,7.67
2023-01-20T18:04:58.556Z,6.27
2023-01-20T18:07:00.347Z,5.90
2023-01-20T18:09:03.062Z,4.23
2023-01-20T18:11:16.642Z,4.27
2023-01-20T18:13:18.656Z,4.07
2023-01-20T18:15:21.454Z,4.83
2023-01-20T18:17:24.105Z,4.63
2023-01-20T18:19:26.280Z,4.50
2023-01-20T18:21:34.776Z,4.40
2023-01-20T18:23:39.153Z,3.60
2023-01-20T18:25:41.518Z,4.53
2023-01-20T18:27:44.007Z,3.63
2023-01-20T18:29:46.103Z,4.87
2023-01-20T18:31:48.188Z,2.97
2023-01-20T18:33:52.193Z,3.50
2023-01-20T18:35:55.686Z,4.90
2023-01-20T18:38:00.917Z,4.03
2023-01-20T18:40:03.736Z,4.20
2023-01-20T18:42:05.988Z,4.77
2023-01-20T18:44:08.883Z,3.40
2023-01-20T18:46:11.165Z,3.57
2023-01-20T18:48:13.265Z,5.27
2023-01-20T18:50:16.697Z,4.73
2023-01-20T18:52:22.059Z,3.07
2023-01-20T18:54:25.957Z,3.37
2023-01-20T18:56:29.979Z,2.67
2023-01-20T18:58:34.356Z,2.20
2023-01-20T19:00:39.736Z,2.20
2023-01-20T19:02:44.060Z,1.43
2023-01-20T19:04:46.132Z,2.33
2023-01-20T19:06:48.316Z,1.80
2023-01-20T19:08:50.713Z,1.80
2023-01-20T19:10:52.857Z,2.37
2023-01-20T19:12:54.957Z,1.80
2023-01-20T19:14:57.443Z,1.90
2023-01-20T19:16:59.669Z,3.73
2023-01-20T19:19:06.486Z,24.77
2023-01-20T19:21:11.527Z,83.17
2023-01-20T19:23:14.208Z,76.83
2023-01-20T19:25:16.432Z,88.43
2023-01-20T19:27:19.375Z,46.57
2023-01-20T19:29:22.180Z,56.07
2023-01-20T19:31:27.305Z,40.83
2023-01-20T19:33:29.351Z,34.17
2023-01-20T19:35:33.631Z,20.97
2023-01-20T19:37:35.609Z,27.43
2023-01-20T19:39:37.796Z,23.30
2023-01-20T19:41:39.735Z,36.20
2023-01-20T19:43:42.699Z,33.37
2023-01-20T19:45:45.971Z,26.63
2023-01-20T19:47:48.191Z,19.97
2023-01-20T19:49:50.232Z,16.83
2023-01-20T19:51:52.281Z,13.97
2023-01-20T19:53:58.333Z,14.47
2023-01-20T19:56:09.531Z,11.57
2023-01-20T19:58:11.659Z,11.40
2023-01-20T20:00:14.373Z,13.20
2023-01-20T20:02:16.618Z,12.27
2023-01-20T20:04:24.275Z,11.67
2023-01-20T20:06:34.800Z,12.97
2023-01-20T20:08:36.921Z,5.37
2023-01-20T20:10:42.829Z,4.27
2023-01-20T20:12:45.456Z,7.80
2023-01-20T20:14:47.439Z,6.10
2023-01-20T20:16:50.782Z,5.50
2023-01-20T20:18:53.912Z,4.83
2023-01-20T20:20:56.305Z,5.67
2023-01-20T20:22:58.522Z,6.40
2023-01-20T20:25:00.434Z,6.77
2023-01-20T20:27:02.531Z,5.97
2023-01-20T20:29:07.298Z,6.13
2023-01-20T20:31:10.024Z,6.37
2023-01-20T20:33:12.726Z,5.10
2023-01-20T20:35:15.113Z,7.07
2023-01-20T20:37:18.937Z,6.90
2023-01-20T20:39:20.952Z,5.73
2023-01-20T20:41:25.822Z,5.07
2023-01-20T20:43:29.282Z,3.60
2023-01-20T20:45:31.624Z,7.13
2023-01-20T20:47:35.459Z,6.50
2023-01-20T20:49:37.373Z,6.60
2023-01-20T20:51:42.165Z,3.40
2023-01-20T20:53:44.613Z,6.23
2023-01-20T20:55:46.707Z,13.90
2023-01-20T20:57:48.777Z,17.90
2023-01-20T20:59:58.874Z,22.57
2023-01-20T21:02:01.941Z,15.23
2023-01-20T21:04:04.403Z,12.10
2023-01-20T21:06:07.222Z,14.97
2023-01-20T21:08:09.309Z,11.17
2023-01-20T21:10:14.060Z,11.13
2023-01-20T21:12:16.582Z,10.90
2023-01-20T21:14:21.371Z,11.83
2023-01-20T21:16:24.430Z,10.83
2023-01-20T21:18:31.384Z,11.87
2023-01-20T21:20:34.022Z,9.03
2023-01-20T21:22:36.411Z,10.73
2023-01-20T21:24:38.425Z,12.20
2023-01-20T21:26:41.285Z,9.17
2023-01-20T21:28:44.583Z,8.83
2023-01-20T21:30:47.087Z,10.13
2023-01-20T21:32:49.428Z,26.67
2023-01-20T21:34:55.390Z,13.93
2023-01-20T21:36:57.418Z,14.63
2023-01-20T21:38:59.659Z,14.43
2023-01-20T21:41:10.062Z,14.07
2023-01-20T21:43:30.936Z,19.83
2023-01-20T21:45:33.029Z,20.27
2023-01-20T21:47:35.244Z,23.70
2023-01-20T21:49:55.677Z,15.77
2023-01-20T21:52:16.617Z,18.60
2023-01-20T21:54:18.981Z,17.27
2023-01-20T21:56:21.434Z,29.43
2023-01-20T21:58:24.403Z,44.50
2023-01-20T22:00:30.260Z,32.83
2023-01-20T22:02:32.641Z,34.03
2023-01-20T22:04:40.438Z,38.43
2023-01-20T22:06:43.173Z,53.03
2023-01-20T22:08:48.232Z,38.90
2023-01-20T22:11:01.923Z,61.27
2023-01-20T22:13:04.021Z,31.23
2023-01-20T22:15:07.112Z,66.23
2023-01-20T22:17:11.349Z,68.93
2023-01-20T22:19:14.077Z,39.73
2023-01-20T22:21:17.227Z,46.63
2023-01-20T22:23:19.334Z,49.60
2023-01-20T22:25:21.300Z,60.37
2023-01-20T22:27:25.480Z,25.63
2023-01-20T22:29:27.971Z,34.87
2023-01-20T22:31:31.366Z,27.30
2023-01-20T22:33:33.777Z,22.67
2023-01-20T22:35:35.892Z,33.93
2023-01-20T22:37:38.099Z,33.33
2023-01-20T22:39:40.151Z,22.13
2023-01-20T22:41:42.680Z,35.03
2023-01-20T22:43:45.179Z,33.20
2023-01-20T22:45:48.502Z,40.43
2023-01-20T22:47:50.812Z,33.40
2023-01-20T22:49:55.351Z,20.53
2023-01-20T22:51:57.771Z,26.40
2023-01-20T22:54:01.248Z,25.00
2023-01-20T22:56:13.680Z,23.27
2023-01-20T22:58:17.131Z,21.90
2023-01-20T23:00:19.530Z,19.43
2023-01-20T23:02:21.964Z,24.93
2023-01-20T23:04:24.264Z,25.00
2023-01-20T23:06:28.211Z,27.80
2023-01-20T23:08:32.133Z,25.07
2023-01-20T23:10:46.464Z,28.43
2023-01-20T23:12:51.112Z,29.80
2023-01-20T23:14:59.229Z,32.13
2023-01-20T23:17:03.448Z,23.80
2023-01-20T23:19:05.929Z,26.63
2023-01-20T23:21:08.328Z,31.20
2023-01-20T23:23:14.294Z,27.60
2023-01-20T23:25:16.821Z,24.47
2023-01-20T23:27:19.276Z,28.20
2023-01-20T23:29:21.653Z,36.57
2023-01-20T23:31:26.057Z,39.13
2023-01-20T23:33:28.502Z,46.13
2023-01-20T23:35:30.617Z,27.70
2023-01-20T23:37:32.604Z,39.80
2023-01-20T23:39:34.638Z,31.13
2023-01-20T23:41:36.746Z,27.00
2023-01-20T23:43:38.977Z,28.87
2023-01-20T23:45:40.958Z,32.17
2023-01-20T23:47:43.362Z,37.80
2023-01-20T23:49:45.387Z,28.50
2023-01-20T23:51:47.747Z,22.20
2023-01-20T23:53:49.743Z,22.23
2023-01-20T23:55:51.764Z,29.50
2023-01-20T23:57:53.771Z,23.23
2023-01-20T23:59:55.913Z,32.47
